weather.gov     
National Weather Service

Terminal Aerodrome Forecast
NWS Homepage
This page is being discontinued on March 12, 2014.
The same data is available at this site. Please update your bookmarks.
Thank you, and we apologize for the inconvenience.
Please send an email to SR-SRH.Webmaster@noaa.gov with any concerns.


Current Version
Previous Version:    01  02  03  04  05  06  07  08  09  10  11  12  13  14  15  16  17  18  19  20  21  22  23  24  25  26  27  28  29  30  
   31  32  33  34  35  
[Printable]
201
FTUS46 KOTX 201739
TAFSFF
TAF
KSFF 201739Z 2018/2118 12003KT 6SM -RA SCT025 OVC040
      TEMPO 2018/2022 4SM -RA BR BKN025
     FM202200 14005KT 4SM BR VCSH OVC022
     FM210100 16007KT 4SM -RA BR OVC015
     FM210330 18011KT 3SM -RA BR OVC010
     FM210900 22015G18KT 5SM BR VCSH OVC008=


201
FTUS46 KOTX 201739
TAFSFF
TAF
KSFF 201739Z 2018/2118 12003KT 6SM -RA SCT025 OVC040
      TEMPO 2018/2022 4SM -RA BR BKN025
     FM202200 14005KT 4SM BR VCSH OVC022
     FM210100 16007KT 4SM -RA BR OVC015
     FM210330 18011KT 3SM -RA BR OVC010
     FM210900 22015G18KT 5SM BR VCSH OVC008=




U.S. Dept. of Commerce
NOAA National Weather Service
1325 East West Highway
Silver Spring, MD 20910
E-mail: w-nws.webmaster@noaa.gov
Page last modified: May 16, 2007
NATIONAL WEATHER SERVICE: for Safety, for Work, for Fun - FOR LIFE